sensor_id;sensor_type;location;lat;lon;timestamp;pressure;altitude;pressure_sealevel;temperature;humidity
37852;BME280;23691;52.486;4.650;2023-09-07T00:02:23;102027.22;;;24.45;61.42
37852;BME280;23691;52.486;4.650;2023-09-07T00:04:48;102021.63;;;24.39;61.85
37852;BME280;23691;52.486;4.650;2023-09-07T00:07:15;102020.19;;;24.37;61.59
37852;BME280;23691;52.486;4.650;2023-09-07T00:09:40;102013.25;;;24.34;61.64
37852;BME280;23691;52.486;4.650;2023-09-07T00:12:06;102011.56;;;24.33;61.58
37852;BME280;23691;52.486;4.650;2023-09-07T00:14:31;102010.13;;;24.31;61.56
37852;BME280;23691;52.486;4.650;2023-09-07T00:16:57;102009.53;;;24.29;61.55
37852;BME280;23691;52.486;4.650;2023-09-07T00:19:22;102006.16;;;24.27;61.74
37852;BME280;23691;52.486;4.650;2023-09-07T00:21:50;102005.34;;;24.26;61.98
37852;BME280;23691;52.486;4.650;2023-09-07T00:24:17;102002.84;;;24.25;61.78
37852;BME280;23691;52.486;4.650;2023-09-07T00:26:43;101996.31;;;24.26;62.05
37852;BME280;23691;52.486;4.650;2023-09-07T00:29:08;102000.34;;;24.23;62.25
37852;BME280;23691;52.486;4.650;2023-09-07T00:31:34;102003.28;;;24.21;62.14
37852;BME280;23691;52.486;4.650;2023-09-07T00:33:59;102004.56;;;24.19;62.26
37852;BME280;23691;52.486;4.650;2023-09-07T00:36:24;101994.72;;;24.18;62.33
37852;BME280;23691;52.486;4.650;2023-09-07T00:38:50;101994.31;;;24.14;62.46
37852;BME280;23691;52.486;4.650;2023-09-07T00:41:15;101991.00;;;24.12;62.25
37852;BME280;23691;52.486;4.650;2023-09-07T00:43:40;101990.59;;;24.09;62.49
37852;BME280;23691;52.486;4.650;2023-09-07T00:46:07;101985.38;;;24.07;62.13
37852;BME280;23691;52.486;4.650;2023-09-07T00:48:34;101991.91;;;24.06;62.62
37852;BME280;23691;52.486;4.650;2023-09-07T00:51:03;101991.75;;;24.01;62.63
37852;BME280;23691;52.486;4.650;2023-09-07T00:53:28;101991.13;;;23.99;62.57
37852;BME280;23691;52.486;4.650;2023-09-07T00:55:55;101986.94;;;23.96;62.23
37852;BME280;23691;52.486;4.650;2023-09-07T00:58:21;101986.13;;;23.96;62.81
37852;BME280;23691;52.486;4.650;2023-09-07T01:00:46;101985.91;;;23.97;62.54
37852;BME280;23691;52.486;4.650;2023-09-07T01:03:12;101981.03;;;23.99;62.49
37852;BME280;23691;52.486;4.650;2023-09-07T01:05:53;101981.88;;;24.00;62.13
37852;BME280;23691;52.486;4.650;2023-09-07T01:08:35;101972.25;;;23.97;62.34
37852;BME280;23691;52.486;4.650;2023-09-07T01:11:17;101980.03;;;23.94;62.27
37852;BME280;23691;52.486;4.650;2023-09-07T01:13:45;101986.44;;;23.88;62.50
37852;BME280;23691;52.486;4.650;2023-09-07T01:16:12;101988.13;;;23.82;63.17
37852;BME280;23691;52.486;4.650;2023-09-07T01:18:39;101981.84;;;23.82;62.59
37852;BME280;23691;52.486;4.650;2023-09-07T01:21:08;101975.56;;;23.81;62.81
37852;BME280;23691;52.486;4.650;2023-09-07T01:23:38;101982.31;;;23.78;62.84
37852;BME280;23691;52.486;4.650;2023-09-07T01:26:09;101978.75;;;23.78;63.06
37852;BME280;23691;52.486;4.650;2023-09-07T01:28:35;101978.13;;;23.76;62.92
37852;BME280;23691;52.486;4.650;2023-09-07T01:31:02;101978.34;;;23.74;62.76
37852;BME280;23691;52.486;4.650;2023-09-07T01:33:27;101975.59;;;23.74;63.38
37852;BME280;23691;52.486;4.650;2023-09-07T01:35:53;101971.22;;;23.73;63.17
37852;BME280;23691;52.486;4.650;2023-09-07T01:38:18;101978.75;;;23.71;63.63
37852;BME280;23691;52.486;4.650;2023-09-07T01:40:44;101975.19;;;23.71;63.37
37852;BME280;23691;52.486;4.650;2023-09-07T01:43:10;101977.31;;;23.69;63.25
37852;BME280;23691;52.486;4.650;2023-09-07T01:45:38;101971.25;;;23.67;63.52
37852;BME280;23691;52.486;4.650;2023-09-07T01:48:05;101972.81;;;23.56;63.24
37852;BME280;23691;52.486;4.650;2023-09-07T01:50:31;101979.25;;;23.43;64.06
37852;BME280;23691;52.486;4.650;2023-09-07T01:52:56;101968.91;;;23.45;63.56
37852;BME280;23691;52.486;4.650;2023-09-07T01:55:22;101971.41;;;23.47;63.75
37852;BME280;23691;52.486;4.650;2023-09-07T01:57:47;101973.31;;;23.46;63.52
37852;BME280;23691;52.486;4.650;2023-09-07T02:00:13;101968.06;;;23.45;63.61
37852;BME280;23691;52.486;4.650;2023-09-07T02:02:38;101967.44;;;23.43;63.21
37852;BME280;23691;52.486;4.650;2023-09-07T02:05:04;101973.16;;;23.41;63.37
37852;BME280;23691;52.486;4.650;2023-09-07T02:07:30;101972.53;;;23.39;63.56
37852;BME280;23691;52.486;4.650;2023-09-07T02:09:55;101965.63;;;23.36;63.12
37852;BME280;23691;52.486;4.650;2023-09-07T02:12:21;101974.66;;;23.37;63.00
37852;BME280;23691;52.486;4.650;2023-09-07T02:14:46;101971.53;;;23.33;63.16
37852;BME280;23691;52.486;4.650;2023-09-07T02:17:12;101974.28;;;23.33;63.56
37852;BME280;23691;52.486;4.650;2023-09-07T02:19:43;101972.81;;;23.31;63.47
37852;BME280;23691;52.486;4.650;2023-09-07T02:22:10;101972.81;;;23.31;63.35
37852;BME280;23691;52.486;4.650;2023-09-07T02:24:36;101976.59;;;23.30;63.59
37852;BME280;23691;52.486;4.650;2023-09-07T02:27:02;101972.63;;;23.26;63.93
37852;BME280;23691;52.486;4.650;2023-09-07T02:29:27;101978.09;;;23.26;64.29
37852;BME280;23691;52.486;4.650;2023-09-07T02:31:53;101978.53;;;23.23;64.24
37852;BME280;23691;52.486;4.650;2023-09-07T02:34:18;101977.91;;;23.21;64.52
37852;BME280;23691;52.486;4.650;2023-09-07T02:36:43;101978.78;;;23.21;64.38
37852;BME280;23691;52.486;4.650;2023-09-07T02:39:09;101973.31;;;23.21;64.11
37852;BME280;23691;52.486;4.650;2023-09-07T02:41:36;101979.00;;;23.20;64.38
37852;BME280;23691;52.486;4.650;2023-09-07T02:44:02;101977.91;;;23.21;64.52
37852;BME280;23691;52.486;4.650;2023-09-07T02:46:28;101982.53;;;23.20;64.56
37852;BME280;23691;52.486;4.650;2023-09-07T02:48:53;101978.16;;;23.19;64.47
37852;BME280;23691;52.486;4.650;2023-09-07T02:51:22;101978.59;;;23.16;64.54
37852;BME280;23691;52.486;4.650;2023-09-07T02:53:48;101977.13;;;23.13;64.39
37852;BME280;23691;52.486;4.650;2023-09-07T02:56:13;101982.00;;;23.11;64.79
37852;BME280;23691;52.486;4.650;2023-09-07T02:58:38;101981.38;;;23.09;64.40
37852;BME280;23691;52.486;4.650;2023-09-07T03:01:09;101981.13;;;23.11;64.77
37852;BME280;23691;52.486;4.650;2023-09-07T03:03:34;101978.03;;;23.07;64.94
37852;BME280;23691;52.486;4.650;2023-09-07T03:06:11;101978.84;;;23.08;64.91
37852;BME280;23691;52.486;4.650;2023-09-07T03:08:38;101972.38;;;23.02;64.75
37852;BME280;23691;52.486;4.650;2023-09-07T03:11:05;101976.78;;;23.03;64.85
37852;BME280;23691;52.486;4.650;2023-09-07T03:13:31;101970.50;;;23.03;64.66
37852;BME280;23691;52.486;4.650;2023-09-07T03:15:57;101967.97;;;23.01;64.64
37852;BME280;23691;52.486;4.650;2023-09-07T03:18:22;101962.75;;;23.00;64.34
37852;BME280;23691;52.486;4.650;2023-09-07T03:20:49;101962.13;;;22.98;64.44
37852;BME280;23691;52.486;4.650;2023-09-07T03:23:15;101969.03;;;22.93;64.45
37852;BME280;23691;52.486;4.650;2023-09-07T03:25:40;101964.44;;;22.94;64.62
37852;BME280;23691;52.486;4.650;2023-09-07T03:28:08;101966.75;;;22.90;64.46
37852;BME280;23691;52.486;4.650;2023-09-07T03:30:34;101967.59;;;22.91;64.75
37852;BME280;23691;52.486;4.650;2023-09-07T03:32:59;101964.03;;;22.90;64.85
37852;BME280;23691;52.486;4.650;2023-09-07T03:35:24;101964.47;;;22.87;64.79
37852;BME280;23691;52.486;4.650;2023-09-07T03:37:50;101972.47;;;22.89;64.89
37852;BME280;23691;52.486;4.650;2023-09-07T03:40:15;101959.03;;;22.87;64.43
37852;BME280;23691;52.486;4.650;2023-09-07T03:42:41;101967.41;;;22.86;64.78
37852;BME280;23691;52.486;4.650;2023-09-07T03:45:07;101970.16;;;22.86;64.27
37852;BME280;23691;52.486;4.650;2023-09-07T03:47:33;101970.16;;;22.86;64.74
37852;BME280;23691;52.486;4.650;2023-09-07T03:49:58;101964.31;;;22.82;64.38
37852;BME280;23691;52.486;4.650;2023-09-07T03:52:25;101964.66;;;22.92;64.31
37852;BME280;23691;52.486;4.650;2023-09-07T03:54:53;101968.22;;;22.93;63.76
37852;BME280;23691;52.486;4.650;2023-09-07T03:57:19;101966.56;;;22.92;64.26
37852;BME280;23691;52.486;4.650;2023-09-07T03:59:45;101960.28;;;22.85;64.26
37852;BME280;23691;52.486;4.650;2023-09-07T04:02:11;101971.59;;;22.88;64.13
37852;BME280;23691;52.486;4.650;2023-09-07T04:04:38;101973.69;;;22.86;63.88
37852;BME280;23691;52.486;4.650;2023-09-07T04:07:03;101964.94;;;22.84;63.54
37852;BME280;23691;52.486;4.650;2023-09-07T04:09:29;101973.31;;;22.83;63.78
37852;BME280;23691;52.486;4.650;2023-09-07T04:11:54;101981.94;;;22.80;63.90
37852;BME280;23691;52.486;4.650;2023-09-07T04:14:19;101980.50;;;22.77;63.95
37852;BME280;23691;52.486;4.650;2023-09-07T04:16:45;101979.25;;;22.73;63.86
37852;BME280;23691;52.486;4.650;2023-09-07T04:19:10;101983.03;;;22.72;63.45
37852;BME280;23691;52.486;4.650;2023-09-07T04:21:36;101978.84;;;22.69;63.73
37852;BME280;23691;52.486;4.650;2023-09-07T04:24:02;101985.59;;;22.67;63.69
37852;BME280;23691;52.486;4.650;2023-09-07T04:26:28;101983.28;;;22.64;63.73
37852;BME280;23691;52.486;4.650;2023-09-07T04:28:54;101979.09;;;22.61;63.77
37852;BME280;23691;52.486;4.650;2023-09-07T04:31:19;101981.19;;;22.59;64.23
37852;BME280;23691;52.486;4.650;2023-09-07T04:33:46;101984.34;;;22.56;64.36
37852;BME280;23691;52.486;4.650;2023-09-07T04:36:13;101994.44;;;22.56;64.45
37852;BME280;23691;52.486;4.650;2023-09-07T04:38:40;101981.00;;;22.54;64.09
37852;BME280;23691;52.486;4.650;2023-09-07T04:41:09;101987.53;;;22.53;64.39
37852;BME280;23691;52.486;4.650;2023-09-07T04:43:36;101988.78;;;22.50;64.53
37852;BME280;23691;52.486;4.650;2023-09-07T04:46:01;101986.28;;;22.49;64.25
37852;BME280;23691;52.486;4.650;2023-09-07T04:48:27;101992.78;;;22.48;64.09
37852;BME280;23691;52.486;4.650;2023-09-07T04:51:02;101989.44;;;22.46;63.91
37852;BME280;23691;52.486;4.650;2023-09-07T04:53:32;101991.53;;;22.44;64.31
37852;BME280;23691;52.486;4.650;2023-09-07T04:55:58;102001.63;;;22.43;64.22
37852;BME280;23691;52.486;4.650;2023-09-07T04:58:24;101993.44;;;22.43;64.23
37852;BME280;23691;52.486;4.650;2023-09-07T05:00:51;102002.69;;;22.42;63.67
37852;BME280;23691;52.486;4.650;2023-09-07T05:03:16;101995.53;;;22.41;64.09
37852;BME280;23691;52.486;4.650;2023-09-07T05:05:42;101997.63;;;22.39;63.59
37852;BME280;23691;52.486;4.650;2023-09-07T05:08:09;101997.69;;;22.33;63.84
37852;BME280;23691;52.486;4.650;2023-09-07T05:10:35;101994.31;;;22.31;63.95
37852;BME280;23691;52.486;4.650;2023-09-07T05:13:01;102000.59;;;22.31;63.88
37852;BME280;23691;52.486;4.650;2023-09-07T05:15:29;102003.97;;;22.26;64.25
37852;BME280;23691;52.486;4.650;2023-09-07T05:17:55;102010.28;;;22.20;64.81
37852;BME280;23691;52.486;4.650;2023-09-07T05:20:21;102008.78;;;22.24;64.33
37852;BME280;23691;52.486;4.650;2023-09-07T05:22:47;102018.88;;;22.24;64.39
37852;BME280;23691;52.486;4.650;2023-09-07T05:25:15;102015.72;;;22.27;64.30
37852;BME280;23691;52.486;4.650;2023-09-07T05:27:41;102023.50;;;22.23;64.53
37852;BME280;23691;52.486;4.650;2023-09-07T05:30:10;102027.66;;;22.19;64.96
37852;BME280;23691;52.486;4.650;2023-09-07T05:32:40;102029.75;;;22.17;64.91
37852;BME280;23691;52.486;4.650;2023-09-07T05:35:09;102029.75;;;22.17;65.09
37852;BME280;23691;52.486;4.650;2023-09-07T05:37:37;102033.34;;;22.18;64.78
37852;BME280;23691;52.486;4.650;2023-09-07T05:40:03;102029.75;;;22.17;64.76
37852;BME280;23691;52.486;4.650;2023-09-07T05:42:29;102042.34;;;22.18;65.05
37852;BME280;23691;52.486;4.650;2023-09-07T05:44:54;102031.66;;;22.17;64.62
37852;BME280;23691;52.486;4.650;2023-09-07T05:47:20;102028.09;;;22.16;64.53
37852;BME280;23691;52.486;4.650;2023-09-07T05:49:45;102032.72;;;22.16;64.67
37852;BME280;23691;52.486;4.650;2023-09-07T05:52:10;102024.97;;;22.13;64.86
37852;BME280;23691;52.486;4.650;2023-09-07T05:54:37;102036.91;;;22.25;64.53
37852;BME280;23691;52.486;4.650;2023-09-07T05:57:03;102034.41;;;22.23;64.48
37852;BME280;23691;52.486;4.650;2023-09-07T05:59:28;102032.94;;;22.21;65.09
37852;BME280;23691;52.486;4.650;2023-09-07T06:01:57;102032.28;;;22.25;64.69
37852;BME280;23691;52.486;4.650;2023-09-07T06:04:22;102033.75;;;22.28;65.19
37852;BME280;23691;52.486;4.650;2023-09-07T06:06:47;102038.78;;;22.31;65.09
37852;BME280;23691;52.486;4.650;2023-09-07T06:09:13;102036.69;;;22.33;65.36
37852;BME280;23691;52.486;4.650;2023-09-07T06:11:41;102043.59;;;22.36;65.13
37852;BME280;23691;52.486;4.650;2023-09-07T06:14:06;102050.91;;;22.42;65.29
37852;BME280;23691;52.486;4.650;2023-09-07T06:16:37;102057.22;;;22.42;65.60
37852;BME280;23691;52.486;4.650;2023-09-07T06:19:03;102052.56;;;22.49;65.61
37852;BME280;23691;52.486;4.650;2023-09-07T06:21:29;102048.97;;;22.56;65.77
37852;BME280;23691;52.486;4.650;2023-09-07T06:23:57;102053.78;;;22.60;66.00
37852;BME280;23691;52.486;4.650;2023-09-07T06:26:25;102053.78;;;22.67;66.27
37852;BME280;23691;52.486;4.650;2023-09-07T06:28:51;102055.81;;;22.71;66.04
37852;BME280;23691;52.486;4.650;2023-09-07T06:31:16;102056.88;;;22.77;65.57
37852;BME280;23691;52.486;4.650;2023-09-07T06:33:43;102051.59;;;22.82;65.96
37852;BME280;23691;52.486;4.650;2023-09-07T06:36:08;102064.16;;;22.90;66.00
37852;BME280;23691;52.486;4.650;2023-09-07T06:38:34;102057.81;;;22.96;66.07
37852;BME280;23691;52.486;4.650;2023-09-07T06:41:02;102052.38;;;23.03;65.82
37852;BME280;23691;52.486;4.650;2023-09-07T06:43:27;102054.44;;;23.07;65.95
37852;BME280;23691;52.486;4.650;2023-09-07T06:46:08;102058.00;;;23.08;66.20
37852;BME280;23691;52.486;4.650;2023-09-07T06:48:34;102056.06;;;23.15;65.84
37852;BME280;23691;52.486;4.650;2023-09-07T06:51:04;102047.63;;;23.23;65.99
37852;BME280;23691;52.486;4.650;2023-09-07T06:53:35;102053.03;;;23.30;65.74
37852;BME280;23691;52.486;4.650;2023-09-07T06:56:06;102050.28;;;23.36;65.74
37852;BME280;23691;52.486;4.650;2023-09-07T06:58:31;102049.16;;;23.44;65.26
37852;BME280;23691;52.486;4.650;2023-09-07T07:00:59;102048.28;;;23.50;65.17
37852;BME280;23691;52.486;4.650;2023-09-07T07:03:30;102053.25;;;23.60;64.81
37852;BME280;23691;52.486;4.650;2023-09-07T07:05:59;102054.88;;;23.68;64.77
37852;BME280;23691;52.486;4.650;2023-09-07T07:08:27;102046.25;;;23.71;64.98
37852;BME280;23691;52.486;4.650;2023-09-07T07:10:58;102043.03;;;23.81;64.55
37852;BME280;23691;52.486;4.650;2023-09-07T07:13:24;102052.38;;;23.91;64.25
37852;BME280;23691;52.486;4.650;2023-09-07T07:15:52;102051.50;;;23.97;64.39
37852;BME280;23691;52.486;4.650;2023-09-07T07:18:21;102044.06;;;24.05;63.84
37852;BME280;23691;52.486;4.650;2023-09-07T07:20:48;102045.06;;;24.10;63.90
37852;BME280;23691;52.486;4.650;2023-09-07T07:23:17;102046.88;;;24.16;63.93
37852;BME280;23691;52.486;4.650;2023-09-07T07:25:44;102044.09;;;24.23;63.83
37852;BME280;23691;52.486;4.650;2023-09-07T07:28:10;102042.94;;;24.31;63.46
37852;BME280;23691;52.486;4.650;2023-09-07T07:30:39;102043.09;;;24.36;63.39
37852;BME280;23691;52.486;4.650;2023-09-07T07:33:10;102035.44;;;24.45;63.28
37852;BME280;23691;52.486;4.650;2023-09-07T07:35:39;102037.66;;;24.54;62.77
37852;BME280;23691;52.486;4.650;2023-09-07T07:38:08;102035.44;;;24.63;62.31
37852;BME280;23691;52.486;4.650;2023-09-07T07:40:41;102036.19;;;24.70;62.15
37852;BME280;23691;52.486;4.650;2023-09-07T07:43:08;102038.25;;;24.75;61.47
37852;BME280;23691;52.486;4.650;2023-09-07T07:45:34;102047.13;;;24.89;61.61
37852;BME280;23691;52.486;4.650;2023-09-07T07:48:03;102042.97;;;24.98;60.94
37852;BME280;23691;52.486;4.650;2023-09-07T07:50:30;102042.22;;;25.09;60.87
37852;BME280;23691;52.486;4.650;2023-09-07T07:52:56;102043.59;;;25.18;60.50
37852;BME280;23691;52.486;4.650;2023-09-07T07:55:27;102039.91;;;25.24;60.25
37852;BME280;23691;52.486;4.650;2023-09-07T07:57:53;102028.63;;;25.33;60.24
37852;BME280;23691;52.486;4.650;2023-09-07T08:00:18;102029.72;;;25.43;60.19
37852;BME280;23691;52.486;4.650;2023-09-07T08:02:47;102028.31;;;25.53;60.00
37852;BME280;23691;52.486;4.650;2023-09-07T08:05:15;102031.78;;;25.60;59.91
37852;BME280;23691;52.486;4.650;2023-09-07T08:07:44;102021.88;;;25.70;59.37
37852;BME280;23691;52.486;4.650;2023-09-07T08:10:09;102021.53;;;25.79;59.51
37852;BME280;23691;52.486;4.650;2023-09-07T08:12:40;102023.09;;;25.86;59.38
37852;BME280;23691;52.486;4.650;2023-09-07T08:15:09;102020.63;;;25.97;59.25
37852;BME280;23691;52.486;4.650;2023-09-07T08:17:37;102015.34;;;26.07;59.09
37852;BME280;23691;52.486;4.650;2023-09-07T08:20:05;102013.06;;;26.16;59.05
37852;BME280;23691;52.486;4.650;2023-09-07T08:22:47;102010.53;;;26.26;58.75
37852;BME280;23691;52.486;4.650;2023-09-07T08:25:13;102002.91;;;26.28;58.40
37852;BME280;23691;52.486;4.650;2023-09-07T08:27:45;102002.88;;;26.40;58.03
37852;BME280;23691;52.486;4.650;2023-09-07T08:30:13;101998.09;;;26.47;57.77
37852;BME280;23691;52.486;4.650;2023-09-07T08:32:44;101995.97;;;26.61;57.66
37852;BME280;23691;52.486;4.650;2023-09-07T08:35:12;101994.72;;;26.68;57.28
37852;BME280;23691;52.486;4.650;2023-09-07T08:37:41;101990.50;;;26.77;57.30
37852;BME280;23691;52.486;4.650;2023-09-07T08:40:07;101993.69;;;26.86;56.99
37852;BME280;23691;52.486;4.650;2023-09-07T08:42:37;101995.78;;;26.96;56.95
37852;BME280;23691;52.486;4.650;2023-09-07T08:45:03;101994.56;;;27.04;56.44
37852;BME280;23691;52.486;4.650;2023-09-07T08:47:37;101991.41;;;27.12;55.90
37852;BME280;23691;52.486;4.650;2023-09-07T08:50:07;101993.16;;;27.18;55.55
37852;BME280;23691;52.486;4.650;2023-09-07T08:52:36;101984.22;;;27.23;55.22
37852;BME280;23691;52.486;4.650;2023-09-07T08:55:02;101989.28;;;27.31;55.09
37852;BME280;23691;52.486;4.650;2023-09-07T08:57:33;101986.13;;;27.39;54.90
37852;BME280;23691;52.486;4.650;2023-09-07T08:59:59;101990.94;;;27.49;54.91
37852;BME280;23691;52.486;4.650;2023-09-07T09:02:25;101989.13;;;27.54;54.95
37852;BME280;23691;52.486;4.650;2023-09-07T09:04:51;101987.44;;;27.70;54.63
37852;BME280;23691;52.486;4.650;2023-09-07T09:07:17;101978.75;;;27.78;54.11
37852;BME280;23691;52.486;4.650;2023-09-07T09:09:45;101983.94;;;27.92;53.63
37852;BME280;23691;52.486;4.650;2023-09-07T09:12:15;101982.97;;;28.03;53.41
37852;BME280;23691;52.486;4.650;2023-09-07T09:14:44;101988.31;;;28.10;53.09
37852;BME280;23691;52.486;4.650;2023-09-07T09:17:14;101987.38;;;28.21;52.67
37852;BME280;23691;52.486;4.650;2023-09-07T09:19:40;101982.75;;;28.26;52.77
37852;BME280;23691;52.486;4.650;2023-09-07T09:22:12;101981.22;;;28.36;52.46
37852;BME280;23691;52.486;4.650;2023-09-07T09:24:41;101978.78;;;28.39;52.23
37852;BME280;23691;52.486;4.650;2023-09-07T09:27:09;101977.28;;;28.49;52.15
37852;BME280;23691;52.486;4.650;2023-09-07T09:29:38;101979.56;;;28.57;51.40
37852;BME280;23691;52.486;4.650;2023-09-07T09:32:05;101979.13;;;28.65;51.17
37852;BME280;23691;52.486;4.650;2023-09-07T09:34:40;101979.16;;;28.70;51.35
37852;BME280;23691;52.486;4.650;2023-09-07T09:37:13;101973.19;;;28.78;51.33
37852;BME280;23691;52.486;4.650;2023-09-07T09:39:40;101984.06;;;28.90;50.32
37852;BME280;23691;52.486;4.650;2023-09-07T09:42:07;101984.41;;;28.99;50.05
37852;BME280;23691;52.486;4.650;2023-09-07T09:44:34;101984.19;;;29.05;49.75
37852;BME280;23691;52.486;4.650;2023-09-07T09:47:06;101983.22;;;29.17;50.05
37852;BME280;23691;52.486;4.650;2023-09-07T09:49:42;101985.75;;;29.23;49.52
37852;BME280;23691;52.486;4.650;2023-09-07T09:52:08;101987.19;;;29.31;49.47
37852;BME280;23691;52.486;4.650;2023-09-07T09:54:38;101991.66;;;29.37;49.42
37852;BME280;23691;52.486;4.650;2023-09-07T09:57:03;101982.84;;;29.40;48.64
37852;BME280;23691;52.486;4.650;2023-09-07T09:59:31;101990.09;;;29.46;49.06
37852;BME280;23691;52.486;4.650;2023-09-07T10:01:57;101984.63;;;29.51;49.17
37852;BME280;23691;52.486;4.650;2023-09-07T10:04:23;101984.69;;;29.62;49.04
37852;BME280;23691;52.486;4.650;2023-09-07T10:06:53;101991.91;;;29.68;48.84
37852;BME280;23691;52.486;4.650;2023-09-07T10:09:21;101984.22;;;29.75;48.40
37852;BME280;23691;52.486;4.650;2023-09-07T10:11:53;101977.94;;;29.85;47.91
37852;BME280;23691;52.486;4.650;2023-09-07T10:14:20;101980.16;;;29.88;47.84
37852;BME280;23691;52.486;4.650;2023-09-07T10:16:48;101981.03;;;29.88;47.76
37852;BME280;23691;52.486;4.650;2023-09-07T10:19:26;101981.06;;;29.99;47.95
37852;BME280;23691;52.486;4.650;2023-09-07T10:22:12;101981.94;;;30.09;48.50
37852;BME280;23691;52.486;4.650;2023-09-07T10:24:57;101974.81;;;30.18;48.39
37852;BME280;23691;52.486;4.650;2023-09-07T10:27:22;101978.19;;;30.26;47.76
37852;BME280;23691;52.486;4.650;2023-09-07T10:29:54;101972.44;;;30.32;47.72
37852;BME280;23691;52.486;4.650;2023-09-07T10:32:26;101966.94;;;30.43;47.65
37852;BME280;23691;52.486;4.650;2023-09-07T10:34:51;101963.09;;;30.49;47.42
37852;BME280;23691;52.486;4.650;2023-09-07T10:37:16;101964.50;;;30.62;47.45
37852;BME280;23691;52.486;4.650;2023-09-07T10:39:44;101961.47;;;30.68;46.91
37852;BME280;23691;52.486;4.650;2023-09-07T10:42:23;101960.66;;;30.78;46.47
37852;BME280;23691;52.486;4.650;2023-09-07T10:44:49;101965.63;;;30.76;46.69
37852;BME280;23691;52.486;4.650;2023-09-07T10:47:14;101966.44;;;30.76;46.23
37852;BME280;23691;52.486;4.650;2023-09-07T10:49:40;101963.44;;;30.78;46.01
37852;BME280;23691;52.486;4.650;2023-09-07T10:52:05;101959.88;;;30.88;45.92
37852;BME280;23691;52.486;4.650;2023-09-07T10:54:31;101969.56;;;30.90;46.04
37852;BME280;23691;52.486;4.650;2023-09-07T10:56:56;101965.16;;;30.89;45.80
37852;BME280;23691;52.486;4.650;2023-09-07T10:59:27;101964.03;;;30.95;46.00
37852;BME280;23691;52.486;4.650;2023-09-07T11:01:53;101956.56;;;31.06;46.32
37852;BME280;23691;52.486;4.650;2023-09-07T11:04:18;101954.91;;;31.15;46.44
37852;BME280;23691;52.486;4.650;2023-09-07T11:06:45;101957.66;;;31.26;46.41
37852;BME280;23691;52.486;4.650;2023-09-07T11:09:11;101959.06;;;31.38;45.81
37852;BME280;23691;52.486;4.650;2023-09-07T11:11:37;101962.09;;;31.37;45.68
37852;BME280;23691;52.486;4.650;2023-09-07T11:14:05;101955.75;;;31.47;44.86
37852;BME280;23691;52.486;4.650;2023-09-07T11:16:33;101951.59;;;31.49;44.78
37852;BME280;23691;52.486;4.650;2023-09-07T11:19:07;101940.28;;;31.51;44.91
37852;BME280;23691;52.486;4.650;2023-09-07T11:21:34;101942.72;;;31.57;44.74
37852;BME280;23691;52.486;4.650;2023-09-07T11:24:01;101945.22;;;31.64;44.60
37852;BME280;23691;52.486;4.650;2023-09-07T11:26:43;101926.69;;;31.64;44.78
37852;BME280;23691;52.486;4.650;2023-09-07T11:29:17;101925.00;;;31.69;44.07
37852;BME280;23691;52.486;4.650;2023-09-07T11:31:44;101921.41;;;31.73;44.21
37852;BME280;23691;52.486;4.650;2023-09-07T11:34:10;101917.81;;;31.78;44.61
37852;BME280;23691;52.486;4.650;2023-09-07T11:36:44;101910.03;;;31.85;44.82
37852;BME280;23691;52.486;4.650;2023-09-07T11:39:10;101909.16;;;31.95;44.40
37852;BME280;23691;52.486;4.650;2023-09-07T11:41:42;101910.22;;;32.09;44.12
37852;BME280;23691;52.486;4.650;2023-09-07T11:44:13;101910.72;;;32.16;44.08
37852;BME280;23691;52.486;4.650;2023-09-07T11:46:40;101897.69;;;32.22;44.46
37852;BME280;23691;52.486;4.650;2023-09-07T11:49:06;101899.28;;;32.33;44.14
37852;BME280;23691;52.486;4.650;2023-09-07T11:51:32;101896.50;;;32.38;43.37
37852;BME280;23691;52.486;4.650;2023-09-07T11:54:03;101888.72;;;32.40;43.50
37852;BME280;23691;52.486;4.650;2023-09-07T11:56:34;101885.09;;;32.45;43.68
37852;BME280;23691;52.486;4.650;2023-09-07T11:59:04;101880.38;;;32.45;43.46
37852;BME280;23691;52.486;4.650;2023-09-07T12:01:33;101874.25;;;32.54;43.46
37852;BME280;23691;52.486;4.650;2023-09-07T12:04:03;101881.97;;;32.62;43.57
37852;BME280;23691;52.486;4.650;2023-09-07T12:06:29;101871.34;;;32.74;43.01
37852;BME280;23691;52.486;4.650;2023-09-07T12:09:05;101878.22;;;32.82;43.04
37852;BME280;23691;52.486;4.650;2023-09-07T12:11:32;101873.44;;;32.87;42.47
37852;BME280;23691;52.486;4.650;2023-09-07T12:13:59;101883.38;;;32.93;42.75
37852;BME280;23691;52.486;4.650;2023-09-07T12:16:27;101877.47;;;33.00;42.37
37852;BME280;23691;52.486;4.650;2023-09-07T12:18:53;101877.47;;;33.05;41.85
37852;BME280;23691;52.486;4.650;2023-09-07T12:21:22;101884.84;;;33.15;41.83
37852;BME280;23691;52.486;4.650;2023-09-07T12:23:50;101884.06;;;33.09;41.64
37852;BME280;23691;52.486;4.650;2023-09-07T12:26:15;101882.63;;;33.17;41.43
37852;BME280;23691;52.486;4.650;2023-09-07T12:28:46;101880.09;;;33.21;41.63
37852;BME280;23691;52.486;4.650;2023-09-07T12:31:18;101881.41;;;33.28;41.18
37852;BME280;23691;52.486;4.650;2023-09-07T12:33:48;101877.97;;;33.36;41.07
37852;BME280;23691;52.486;4.650;2023-09-07T12:36:18;101882.66;;;33.41;41.14
37852;BME280;23691;52.486;4.650;2023-09-07T12:38:52;101874.47;;;33.55;40.76
37852;BME280;23691;52.486;4.650;2023-09-07T12:41:18;101877.38;;;33.69;40.40
37852;BME280;23691;52.486;4.650;2023-09-07T12:43:44;101872.53;;;33.80;40.53
37852;BME280;23691;52.486;4.650;2023-09-07T12:46:09;101870.72;;;33.89;39.70
37852;BME280;23691;52.486;4.650;2023-09-07T12:48:35;101874.78;;;33.96;39.80
37852;BME280;23691;52.486;4.650;2023-09-07T12:51:00;101874.44;;;34.03;39.59
37852;BME280;23691;52.486;4.650;2023-09-07T12:53:37;101868.47;;;34.15;39.61